LIMW/AOT METAR and TAF weather

Enter ICAO airport designator
Station Type Date Time Source
LIMW METAR 2020/01/18 16:20 UTC NOAA

LIMW 181620Z AUTO 29007KT 260V330 9999 08/M12 Q1023


Station Type Date Time Source
LIMW Decoded METAR 2020/01/18 16:20 UTC NOAA

Station name not available
Jan 18, 2020 - 11:20 AM EST / 2020.01.18 1620 UTC
Wind: from the WNW (290 degrees) at 8 MPH (7 KT) (direction variable):0
Visibility: greater than 7 mile(s):0
Temperature: 46 F (8 C)
Dew Point: 10 F (-12 C)
Relative Humidity: 22%
Pressure (altimeter): 30.21 in. Hg (1023 hPa)
ob: LIMW 181620Z AUTO 29007KT 260V330 9999 08/M12 Q1023
cycle: 16

Station Type Date Time Source
LIMW TAF UTC NOAA

Error!

Example: see airport list